Rollingbay, WA (98061)

11:00 PM PST on February 21, 2017 (GMT -0800)
Skiff Point | | Change Station

Elev 120 ft 47.66 °N, 122.50 °W | Updated 7 seconds ago

Overcast
Overcast
41.4 °F
Feels Like 41 °F
N
0.0
Wind Variable Wind from South
Gusts 0.0 mph

Today
High -- | Low -- °F
--% Chance of Precip.
Yesterday
High -- | Low -- °F
Precip. -- in
Pressure 30.16 in
Visibility 9.0 miles
Clouds Overcast 2600 ft
Windchill 41 °F
Dew Point 36 °F
Humidity 80%
Rainfall 0.13 in
Snow Depth Not available.
7:04 AM 5:43 PM
Waning Crescent, 19% visible
METAR KBFI 220653Z 11006KT 9SM -RA OVC026 05/04 A3015 RMK AO2 RAB30 SLP211 P0001 T00500039 $
Pressure 30.16 in
Visibility 9.0 miles
Clouds Overcast 2600 ft
Windchill 41 °F
Dew Point 36 °F
Humidity 80%
Rainfall 0.13 in
Snow Depth Not available.
7:04 AM 5:43 PM
Waning Crescent, 19% visible
METAR KBFI 220653Z 11006KT 9SM -RA OVC026 05/04 A3015 RMK AO2 RAB30 SLP211 P0001 T00500039 $

Get Your Daily Forecast Email!

Thanks for signing up!

Be on the lookout for a verification email in your inbox.

You'll start receiving the daily forecast at 8 AM.

×

10-Day Weather Forecast

Almanac

Astronomy

Feb. 21, 2017 Rise Set
Actual Time
Civil Twilight
Nautical Twilight
Astronomical Twilight
Moon
Length of Visible Light
Length of Day
Tomorrow will be .
, % of the Moon is Illuminated

Today's Extremes

State Highs State Lows

Community

WunderPhotos

Upload Photos

1,962,540 photos uploaded!

WunderBlog® & News

Nearby

Air Quality

  Air Quality AQ Index Pollutant
Not available.

Snow Depth

Station Depth Elevation

Earthquake Activity

City Distance Mag. Time & Date
Minimum magnitude displayed is 2.5.

Coastal Water Temperatures

Place Temperature

Stations

Nearby Weather Stations

Station Location Temp. Windchill Dew Point Humidity Wind Precip. Elev Updated Type
                   

Watches & Warnings

There are currently no watches in effect.